GVAC

Amílcar Cabral International Airport

Espargos, Cape Verde
METAR GVAC 200700Z 04008KT 9000 SCT014 SCT200 19/16 Q1014 NOSIG
Observed Flight Rules
Feb-20 @ 07:00 UTC (20 minutes ago) Visual Flight Rules
Wind Visibility Clouds
40° at 8 knots 8,996 meters
  • Scattered at 1,400' AGL
  • Scattered at 20,000' AGL
Temperatures Readings
Current 19°C / 66°F
Dewpoint 16°C / 61°F
Humidity 83%
Altimeter 29.94" Hg
Pressure 1014 hPa
Elevation 55
METAR GVAC 200700Z 04008KT 9000 SCT014 SCT200 19/16 Q1014 NOSIG
Observed Flight Rules
Feb-20 @ 07:00 UTC
(20 minutes ago)
VFR
Wind Visibility
40° at 8 knots 8,996 meters
Clouds
  • Scattered at 1,400' AGL
  • Scattered at 20,000' AGL
Temperature Dewpoint
19°C / 66°F 16°C / 61°F
Humidity Altimeter Pressure
83% 29.94" Hg 1014 hPa